Time;durP1;ratioP1;P1;durP2;ratioP2;P2;SDS_P1;SDS_P2;PMS_P1;PMS_P2;Temp;Humidity;BMP_temperature;BMP_pressure;BME280_temperature;BME280_humidity;BME280_pressure;Samples;Min_cycle;Max_cycle;Signal;HPM_P1;HPM_P2
2022/08/10 00:01:36;;;;;;;;;;;23.30;49.30;;;;;;5085252;28;19920;-65
2022/08/10 00:04:03;;;;;;;;;;;23.30;49.30;;;;;;5074483;28;19966;-65
2022/08/10 00:06:30;;;;;;;;;;;23.30;49.30;;;;;;5085760;28;19924;-64
2022/08/10 00:08:56;;;;;;;;;;;23.30;49.30;;;;;;5086666;28;19994;-64
2022/08/10 00:11:25;;;;;;;;;;;23.30;49.30;;;;;;5092757;28;20023;-65
2022/08/10 00:13:51;;;;;;;;;;;23.30;49.30;;;;;;5091928;28;20455;-64
2022/08/10 00:16:18;;;;;;;;;;;23.30;49.30;;;;;;5064961;28;19920;-63
2022/08/10 00:18:45;;;;;;;;;;;23.30;49.30;;;;;;5080656;28;19978;-64
2022/08/10 00:21:12;;;;;;;;;;;23.30;49.30;;;;;;5092822;28;19920;-64
2022/08/10 00:23:38;;;;;;;;;;;23.30;49.30;;;;;;5090227;28;19920;-64
2022/08/10 00:26:05;;;;;;;;;;;23.30;49.30;;;;;;5079247;28;19931;-64
2022/08/10 00:28:33;;;;;;;;;;;23.30;49.30;;;;;;5069489;28;19920;-64
2022/08/10 00:31:00;;;;;;;;;;;23.30;49.30;;;;;;5088914;28;19963;-64
2022/08/10 00:33:27;;;;;;;;;;;23.30;49.30;;;;;;5094875;28;19939;-64
2022/08/10 00:35:54;;;;;;;;;;;23.30;49.30;;;;;;5097706;28;19927;-64
2022/08/10 00:38:20;;;;;;;;;;;23.30;49.30;;;;;;5092972;28;19974;-65
2022/08/10 00:40:47;;;;;;;;;;;23.30;49.30;;;;;;5076442;28;19920;-63
2022/08/10 00:43:14;;;;;;;;;;;23.30;49.30;;;;;;5081260;28;19959;-65
2022/08/10 00:45:42;;;;;;;;;;;23.30;49.40;;;;;;5070180;28;20178;-64
2022/08/10 00:48:09;;;;;;;;;;;23.30;49.30;;;;;;5079327;28;19924;-64
2022/08/10 00:50:36;;;;;;;;;;;23.30;49.30;;;;;;5062061;28;19986;-64
2022/08/10 00:53:03;;;;;;;;;;;23.30;49.40;;;;;;5057193;28;20011;-64
2022/08/10 00:55:30;;;;;;;;;;;23.30;49.30;;;;;;5086216;28;19934;-64
2022/08/10 00:57:56;;;;;;;;;;;23.30;49.90;;;;;;5058135;28;19921;-63
2022/08/10 01:00:23;;;;;;;;;;;23.30;49.40;;;;;;5080258;28;19927;-65
2022/08/10 01:02:51;;;;;;;;;;;23.30;49.40;;;;;;5105169;27;20391;-62
2022/08/10 01:05:19;;;;;;;;;;;23.30;49.40;;;;;;5074987;28;20427;-62
2022/08/10 01:08:09;;;;;;;;;;;23.30;49.40;;;;;;5080664;28;19934;-65
2022/08/10 01:10:41;;;;;;;;;;;23.30;49.40;;;;;;5067984;28;19974;-64
2022/08/10 01:13:10;;;;;;;;;;;23.30;49.40;;;;;;5087708;28;20011;-64
2022/08/10 01:15:38;;;;;;;;;;;23.30;49.40;;;;;;5091332;28;19920;-64
2022/08/10 01:18:08;;;;;;;;;;;23.30;49.40;;;;;;5058691;28;19932;-64
2022/08/10 01:20:36;;;;;;;;;;;23.30;49.40;;;;;;5082599;28;19920;-64
2022/08/10 01:23:20;;;;;;;;;;;23.30;49.50;;;;;;5092414;28;19959;-65
2022/08/10 01:25:56;;;;;;;;;;;23.30;49.50;;;;;;5079054;28;19924;-64
2022/08/10 01:28:26;;;;;;;;;;;23.20;49.40;;;;;;5084502;28;19920;-64
2022/08/10 01:30:54;;;;;;;;;;;23.30;49.50;;;;;;5067087;28;20312;-62
2022/08/10 01:33:22;;;;;;;;;;;23.20;49.40;;;;;;5094999;27;19964;-64
2022/08/10 01:35:51;;;;;;;;;;;23.20;49.40;;;;;;5063339;28;20003;-67
2022/08/10 01:38:19;;;;;;;;;;;23.30;49.50;;;;;;5071748;28;19931;-64
2022/08/10 01:40:46;;;;;;;;;;;23.30;49.50;;;;;;5068337;28;19931;-64
2022/08/10 01:43:13;;;;;;;;;;;23.20;49.40;;;;;;5082828;28;19920;-64
2022/08/10 01:45:42;;;;;;;;;;;23.20;49.40;;;;;;5080274;28;19923;-65
2022/08/10 01:48:29;;;;;;;;;;;23.20;49.40;;;;;;5092409;28;20269;-64
2022/08/10 01:50:57;;;;;;;;;;;23.20;49.40;;;;;;5090124;28;19926;-64
2022/08/10 01:53:24;;;;;;;;;;;23.20;49.50;;;;;;5072170;28;19926;-64
2022/08/10 01:55:51;;;;;;;;;;;23.30;49.50;;;;;;5075578;28;19931;-64
2022/08/10 01:58:18;;;;;;;;;;;23.30;49.60;;;;;;5094282;28;19927;-64
2022/08/10 02:00:45;;;;;;;;;;;23.30;49.50;;;;;;5085612;28;19957;-64
2022/08/10 02:03:13;;;;;;;;;;;23.30;49.50;;;;;;5107460;27;20377;-64
2022/08/10 02:05:40;;;;;;;;;;;23.30;49.60;;;;;;5088027;28;19924;-64
2022/08/10 02:08:07;;;;;;;;;;;23.20;49.50;;;;;;5097636;28;19967;-64
2022/08/10 02:10:34;;;;;;;;;;;23.30;49.60;;;;;;5105188;28;19920;-64
2022/08/10 02:13:01;;;;;;;;;;;23.20;49.50;;;;;;5085727;28;20284;-64
2022/08/10 02:15:28;;;;;;;;;;;23.20;49.50;;;;;;5072272;28;19942;-64
2022/08/10 02:17:55;;;;;;;;;;;23.20;49.50;;;;;;5072463;28;20369;-64
2022/08/10 02:20:24;;;;;;;;;;;23.20;49.60;;;;;;5082084;28;19919;-64
2022/08/10 02:22:56;;;;;;;;;;;23.20;49.60;;;;;;5076456;28;19932;-64
2022/08/10 02:25:23;;;;;;;;;;;23.30;49.60;;;;;;5081749;28;19973;-64
2022/08/10 02:27:50;;;;;;;;;;;23.20;49.50;;;;;;5109565;27;19927;-64
2022/08/10 02:30:17;;;;;;;;;;;23.20;49.60;;;;;;5089322;28;20316;-64
2022/08/10 02:32:44;;;;;;;;;;;23.20;49.60;;;;;;5063069;28;19932;-64
2022/08/10 02:35:11;;;;;;;;;;;23.20;49.60;;;;;;5090521;28;19920;-64
2022/08/10 02:37:39;;;;;;;;;;;23.20;49.60;;;;;;5086727;28;19974;-64
2022/08/10 02:40:07;;;;;;;;;;;23.20;49.60;;;;;;5075736;28;19928;-64
2022/08/10 02:42:34;;;;;;;;;;;23.20;49.60;;;;;;5096961;28;19920;-64
2022/08/10 02:45:01;;;;;;;;;;;23.20;49.60;;;;;;5075286;28;19923;-64
2022/08/10 02:47:29;;;;;;;;;;;23.20;49.60;;;;;;5070538;28;20438;-64
2022/08/10 02:49:57;;;;;;;;;;;23.20;49.60;;;;;;5092569;28;19921;-64
2022/08/10 02:52:25;;;;;;;;;;;23.20;49.60;;;;;;5087959;28;19928;-64
2022/08/10 02:54:54;;;;;;;;;;;23.20;49.70;;;;;;5075171;28;20369;-64
2022/08/10 02:57:21;;;;;;;;;;;23.20;49.60;;;;;;5098501;28;19924;-64
2022/08/10 02:59:48;;;;;;;;;;;23.20;49.60;;;;;;5090204;28;19920;-64
2022/08/10 03:02:16;;;;;;;;;;;23.20;49.70;;;;;;5098277;28;20014;-64
2022/08/10 03:04:44;;;;;;;;;;;23.20;49.70;;;;;;5079525;28;19920;-64
2022/08/10 03:07:11;;;;;;;;;;;23.20;49.70;;;;;;5101687;28;19928;-64
2022/08/10 03:09:38;;;;;;;;;;;23.20;49.70;;;;;;5083153;28;19920;-64
2022/08/10 03:12:07;;;;;;;;;;;23.20;49.70;;;;;;5101747;28;20280;-64
2022/08/10 03:14:34;;;;;;;;;;;23.20;49.70;;;;;;5107558;28;19934;-64
2022/08/10 03:17:01;;;;;;;;;;;23.20;49.70;;;;;;5093922;28;19974;-64
2022/08/10 03:19:28;;;;;;;;;;;23.20;49.80;;;;;;5088519;28;20015;-64
2022/08/10 03:21:54;;;;;;;;;;;23.20;49.80;;;;;;5071121;28;20258;-64
2022/08/10 03:24:24;;;;;;;;;;;23.20;49.80;;;;;;5070830;28;19920;-65
2022/08/10 03:26:51;;;;;;;;;;;23.20;49.80;;;;;;5094853;28;19919;-64
2022/08/10 03:29:19;;;;;;;;;;;23.20;49.80;;;;;;5088643;28;19920;-64
2022/08/10 03:31:46;;;;;;;;;;;23.20;49.90;;;;;;5089681;28;20019;-64
2022/08/10 03:34:13;;;;;;;;;;;23.20;49.90;;;;;;5079968;28;19920;-64
2022/08/10 03:36:40;;;;;;;;;;;23.20;49.90;;;;;;5079115;28;20029;-64
2022/08/10 03:39:06;;;;;;;;;;;23.20;49.90;;;;;;5087354;28;19924;-64
2022/08/10 03:41:35;;;;;;;;;;;23.20;49.90;;;;;;5088250;28;20019;-64
2022/08/10 03:44:02;;;;;;;;;;;23.20;49.90;;;;;;5077358;28;19943;-64
2022/08/10 03:46:30;;;;;;;;;;;23.20;49.90;;;;;;5089648;28;20381;-64
2022/08/10 03:48:57;;;;;;;;;;;23.20;49.90;;;;;;5078525;28;19993;-64
2022/08/10 03:51:23;;;;;;;;;;;23.20;50.00;;;;;;5082545;28;19927;-64
2022/08/10 03:53:50;;;;;;;;;;;23.20;49.90;;;;;;5086628;28;19954;-64
2022/08/10 03:56:17;;;;;;;;;;;23.10;49.90;;;;;;5088426;28;19958;-64
2022/08/10 03:58:44;;;;;;;;;;;23.10;49.90;;;;;;5070732;28;20281;-64
2022/08/10 04:01:10;;;;;;;;;;;23.20;50.00;;;;;;5093886;28;20220;-65
2022/08/10 04:03:39;;;;;;;;;;;23.20;50.00;;;;;;5078390;28;20379;-65
2022/08/10 04:06:05;;;;;;;;;;;23.10;50.00;;;;;;5093109;28;19923;-65
2022/08/10 04:08:32;;;;;;;;;;;23.10;50.00;;;;;;5094017;28;20303;-64
2022/08/10 04:10:59;;;;;;;;;;;23.10;50.00;;;;;;5092992;28;19943;-64
2022/08/10 04:13:26;;;;;;;;;;;23.10;50.00;;;;;;5069823;28;20374;-64
2022/08/10 04:15:52;;;;;;;;;;;23.20;50.10;;;;;;5096468;28;19920;-64
2022/08/10 04:18:19;;;;;;;;;;;23.10;50.00;;;;;;5094987;28;19926;-64
2022/08/10 04:20:48;;;;;;;;;;;23.10;50.10;;;;;;5071766;28;19924;-64
2022/08/10 04:23:18;;;;;;;;;;;23.10;50.10;;;;;;5110822;28;20280;-64
2022/08/10 04:25:45;;;;;;;;;;;23.10;50.10;;;;;;5073739;28;20007;-64
2022/08/10 04:28:12;;;;;;;;;;;23.10;50.10;;;;;;5074234;28;19955;-64
2022/08/10 04:30:38;;;;;;;;;;;23.10;50.10;;;;;;5091013;28;19998;-65
2022/08/10 04:33:05;;;;;;;;;;;23.20;50.30;;;;;;5090743;28;20357;-65
2022/08/10 04:35:32;;;;;;;;;;;23.10;50.20;;;;;;5099901;28;19967;-64
2022/08/10 04:38:00;;;;;;;;;;;23.20;50.30;;;;;;5084590;28;19999;-64
2022/08/10 04:40:27;;;;;;;;;;;23.10;50.20;;;;;;5100766;27;19920;-64
2022/08/10 04:42:54;;;;;;;;;;;23.20;50.30;;;;;;5088054;28;20334;-64
2022/08/10 04:45:20;;;;;;;;;;;23.10;50.30;;;;;;5086482;28;20280;-65
2022/08/10 04:47:47;;;;;;;;;;;23.10;50.30;;;;;;5099240;28;19924;-64
2022/08/10 04:50:14;;;;;;;;;;;23.10;50.30;;;;;;5092746;28;20280;-65
2022/08/10 04:52:41;;;;;;;;;;;23.10;50.30;;;;;;5094969;28;20014;-65
2022/08/10 04:55:10;;;;;;;;;;;23.10;50.40;;;;;;5088755;28;19970;-64
2022/08/10 04:57:37;;;;;;;;;;;23.10;50.40;;;;;;5097877;27;20015;-65
2022/08/10 05:00:03;;;;;;;;;;;23.10;50.40;;;;;;5070626;28;19932;-65
2022/08/10 05:02:30;;;;;;;;;;;23.20;50.40;;;;;;5072624;28;20005;-64
2022/08/10 05:04:57;;;;;;;;;;;23.20;50.50;;;;;;5072913;28;19936;-65
2022/08/10 05:07:24;;;;;;;;;;;23.10;50.40;;;;;;5096149;28;19934;-64
2022/08/10 05:09:51;;;;;;;;;;;23.10;50.50;;;;;;5070027;28;19974;-64
2022/08/10 05:12:19;;;;;;;;;;;23.10;50.50;;;;;;5091547;28;19975;-64
2022/08/10 05:14:45;;;;;;;;;;;23.20;50.60;;;;;;5074779;28;19926;-64
2022/08/10 05:17:13;;;;;;;;;;;23.20;50.60;;;;;;5081563;28;20331;-64
2022/08/10 05:19:39;;;;;;;;;;;23.20;50.60;;;;;;5100719;28;19928;-64
2022/08/10 05:22:07;;;;;;;;;;;23.20;50.60;;;;;;5086877;28;19919;-64
2022/08/10 05:24:34;;;;;;;;;;;23.10;50.60;;;;;;5094850;28;20301;-64
2022/08/10 05:27:00;;;;;;;;;;;23.10;50.60;;;;;;5076676;28;19919;-64
2022/08/10 05:29:29;;;;;;;;;;;23.10;50.70;;;;;;5090883;28;19970;-64
2022/08/10 05:31:56;;;;;;;;;;;23.10;50.70;;;;;;5099228;28;19924;-64
2022/08/10 05:34:26;;;;;;;;;;;23.10;50.70;;;;;;5099683;28;20022;-64
2022/08/10 05:36:54;;;;;;;;;;;23.10;50.80;;;;;;5096643;28;19959;-64
2022/08/10 05:39:21;;;;;;;;;;;23.10;50.80;;;;;;5101244;28;19977;-64
2022/08/10 05:41:47;;;;;;;;;;;23.10;50.90;;;;;;5100124;28;19988;-64
2022/08/10 05:44:14;;;;;;;;;;;23.20;50.90;;;;;;5098568;28;20328;-64
2022/08/10 05:46:42;;;;;;;;;;;23.10;50.90;;;;;;5099517;28;20319;-64
2022/08/10 05:49:09;;;;;;;;;;;23.10;50.90;;;;;;5114647;27;19974;-64
2022/08/10 05:51:36;;;;;;;;;;;23.10;50.90;;;;;;5077773;28;20365;-64
2022/08/10 05:54:03;;;;;;;;;;;23.10;50.80;;;;;;5097525;28;19919;-65
2022/08/10 05:56:30;;;;;;;;;;;23.20;50.90;;;;;;5080460;28;19920;-64
2022/08/10 05:58:57;;;;;;;;;;;23.20;50.90;;;;;;5099597;28;19920;-64
2022/08/10 06:01:25;;;;;;;;;;;23.10;50.90;;;;;;5100074;28;20384;-64
2022/08/10 06:03:57;;;;;;;;;;;23.20;51.00;;;;;;5093644;28;19920;-64
2022/08/10 06:06:24;;;;;;;;;;;23.10;50.90;;;;;;5101188;28;20038;-64
2022/08/10 06:08:50;;;;;;;;;;;23.10;51.00;;;;;;5097477;28;19965;-64
2022/08/10 06:11:17;;;;;;;;;;;23.10;51.00;;;;;;5099664;28;19926;-64
2022/08/10 06:16:29;;;;;;;;;;;23.10;51.10;;;;;;5111639;27;19938;-64
2022/08/10 06:18:58;;;;;;;;;;;23.10;51.10;;;;;;5099854;28;19928;-64
2022/08/10 06:21:24;;;;;;;;;;;23.10;51.10;;;;;;5097209;28;19928;-64
2022/08/10 06:23:51;;;;;;;;;;;23.10;51.10;;;;;;5101105;28;20277;-64
2022/08/10 06:26:18;;;;;;;;;;;23.10;51.00;;;;;;5097899;28;19999;-64
2022/08/10 06:28:45;;;;;;;;;;;23.20;51.00;;;;;;5092602;28;19963;-64
2022/08/10 06:31:12;;;;;;;;;;;23.10;51.00;;;;;;5099077;28;20122;-64
2022/08/10 06:33:39;;;;;;;;;;;23.10;51.10;;;;;;5080616;28;19979;-64
2022/08/10 06:36:08;;;;;;;;;;;23.10;51.10;;;;;;5097333;28;20006;-65
2022/08/10 06:38:35;;;;;;;;;;;23.10;51.00;;;;;;5091720;28;20360;-64
2022/08/10 06:41:02;;;;;;;;;;;23.10;51.00;;;;;;5096218;28;19924;-64
2022/08/10 06:43:29;;;;;;;;;;;23.20;51.10;;;;;;5095353;28;20587;-64
2022/08/10 06:45:59;;;;;;;;;;;23.10;51.10;;;;;;5103529;27;19928;-64
2022/08/10 06:48:26;;;;;;;;;;;23.10;51.10;;;;;;5070895;28;19955;-64
2022/08/10 06:50:54;;;;;;;;;;;23.10;51.10;;;;;;5084023;28;19942;-64
2022/08/10 06:53:23;;;;;;;;;;;23.10;51.10;;;;;;5073405;28;20323;-64
2022/08/10 06:55:51;;;;;;;;;;;23.10;51.00;;;;;;5087597;28;19973;-65
2022/08/10 06:58:19;;;;;;;;;;;23.10;51.00;;;;;;5070153;28;19920;-64
2022/08/10 07:00:46;;;;;;;;;;;23.20;51.10;;;;;;5072785;28;19938;-64
2022/08/10 07:03:14;;;;;;;;;;;23.10;51.10;;;;;;5085821;28;19951;-64
2022/08/10 07:05:42;;;;;;;;;;;23.20;51.20;;;;;;5084073;28;19939;-66
2022/08/10 07:08:09;;;;;;;;;;;23.20;51.20;;;;;;5090885;28;19931;-65
2022/08/10 07:10:37;;;;;;;;;;;23.20;51.20;;;;;;5079906;28;20042;-65
2022/08/10 07:13:03;;;;;;;;;;;23.20;51.30;;;;;;5069401;28;19962;-65
2022/08/10 07:15:30;;;;;;;;;;;23.20;51.20;;;;;;5076662;28;20331;-64
2022/08/10 07:17:57;;;;;;;;;;;23.20;51.20;;;;;;5071541;28;19920;-65
2022/08/10 07:20:24;;;;;;;;;;;23.20;51.20;;;;;;5068927;28;19927;-65
2022/08/10 07:22:51;;;;;;;;;;;23.20;51.70;;;;;;5094074;28;19966;-65
2022/08/10 07:25:19;;;;;;;;;;;23.20;51.20;;;;;;5074227;28;19924;-66
2022/08/10 07:27:48;;;;;;;;;;;23.20;51.10;;;;;;5064816;28;19981;-67
2022/08/10 07:30:15;;;;;;;;;;;23.20;51.20;;;;;;5075144;28;19924;-67
2022/08/10 07:32:43;;;;;;;;;;;23.20;51.20;;;;;;5059754;28;19924;-67
2022/08/10 07:35:10;;;;;;;;;;;23.20;51.10;;;;;;5088569;28;19923;-67
2022/08/10 07:37:37;;;;;;;;;;;23.30;51.20;;;;;;5081004;28;19926;-65
2022/08/10 07:40:04;;;;;;;;;;;23.20;51.10;;;;;;5078389;28;19927;-66
2022/08/10 07:42:30;;;;;;;;;;;23.30;51.20;;;;;;5067901;28;19924;-66
2022/08/10 07:44:59;;;;;;;;;;;23.20;51.10;;;;;;5057144;28;19928;-66
2022/08/10 07:47:27;;;;;;;;;;;23.30;51.20;;;;;;5073179;28;19934;-66
2022/08/10 07:49:54;;;;;;;;;;;23.30;51.20;;;;;;5059594;28;19973;-66
2022/08/10 07:52:21;;;;;;;;;;;23.30;51.20;;;;;;5085110;28;19934;-66
2022/08/10 07:54:48;;;;;;;;;;;23.30;51.10;;;;;;5076074;28;19927;-66
2022/08/10 07:57:17;;;;;;;;;;;23.30;51.20;;;;;;5075217;28;19978;-67
2022/08/10 07:59:45;;;;;;;;;;;23.30;51.20;;;;;;5092463;28;19984;-64
2022/08/10 08:02:18;;;;;;;;;;;23.30;51.20;;;;;;5105284;27;19932;-64
2022/08/10 08:04:45;;;;;;;;;;;23.30;51.20;;;;;;5094959;28;19932;-66
2022/08/10 08:07:12;;;;;;;;;;;23.30;51.10;;;;;;5106441;27;19921;-64
2022/08/10 08:09:39;;;;;;;;;;;23.30;51.10;;;;;;5072516;28;19958;-64
2022/08/10 08:12:06;;;;;;;;;;;23.30;51.10;;;;;;5086455;28;19924;-64
2022/08/10 08:14:33;;;;;;;;;;;23.30;51.10;;;;;;5092770;28;20376;-63
2022/08/10 08:17:00;;;;;;;;;;;23.30;51.10;;;;;;5073577;28;19932;-64
2022/08/10 08:19:28;;;;;;;;;;;23.30;51.10;;;;;;5078442;28;20328;-64
2022/08/10 08:21:55;;;;;;;;;;;23.30;51.10;;;;;;5076906;28;20259;-65
2022/08/10 08:24:22;;;;;;;;;;;23.40;51.20;;;;;;5073730;28;20163;-63
2022/08/10 08:26:48;;;;;;;;;;;23.40;51.20;;;;;;5103484;27;20313;-64
2022/08/10 08:29:15;;;;;;;;;;;23.40;51.10;;;;;;5092920;28;19920;-64
2022/08/10 08:31:42;;;;;;;;;;;23.40;51.10;;;;;;5071502;28;19993;-64
2022/08/10 08:34:08;;;;;;;;;;;23.40;51.20;;;;;;5094028;28;20324;-63
2022/08/10 08:36:37;;;;;;;;;;;23.40;51.20;;;;;;5093028;28;19924;-63
2022/08/10 08:39:03;;;;;;;;;;;23.40;51.20;;;;;;5073880;28;19959;-63
2022/08/10 08:41:42;;;;;;;;;;;23.40;51.20;;;;;;5093609;28;19925;-63
2022/08/10 08:44:09;;;;;;;;;;;23.40;51.10;;;;;;5099535;28;19924;-64
2022/08/10 08:46:42;;;;;;;;;;;23.40;51.10;;;;;;5096169;28;19920;-64
2022/08/10 08:49:22;;;;;;;;;;;23.40;51.10;;;;;;5087972;28;19920;-64
2022/08/10 08:51:53;;;;;;;;;;;23.40;51.10;;;;;;5114849;27;19920;-64
2022/08/10 08:54:23;;;;;;;;;;;23.40;51.10;;;;;;5098173;28;19973;-65
2022/08/10 08:56:54;;;;;;;;;;;23.40;51.10;;;;;;5099998;28;20014;-65
2022/08/10 08:59:25;;;;;;;;;;;23.40;51.00;;;;;;5075736;28;20237;-63
2022/08/10 09:02:00;;;;;;;;;;;23.40;50.90;;;;;;5075193;28;19931;-63
2022/08/10 09:04:33;;;;;;;;;;;23.40;50.90;;;;;;5094200;28;19973;-64
2022/08/10 09:07:11;;;;;;;;;;;23.40;50.90;;;;;;5093252;28;19938;-64
2022/08/10 09:09:45;;;;;;;;;;;23.40;50.80;;;;;;5097025;28;19932;-63
2022/08/10 09:12:17;;;;;;;;;;;23.40;50.80;;;;;;5077345;28;19975;-63
2022/08/10 09:14:44;;;;;;;;;;;23.40;50.80;;;;;;5090642;28;19928;-65
2022/08/10 09:17:14;;;;;;;;;;;23.40;50.70;;;;;;5091027;28;19985;-64
2022/08/10 09:19:41;;;;;;;;;;;23.50;50.80;;;;;;5096435;28;20270;-64
2022/08/10 09:22:13;;;;;;;;;;;23.40;50.70;;;;;;5095540;28;19928;-63
2022/08/10 09:24:41;;;;;;;;;;;23.50;50.70;;;;;;5090495;28;19978;-63
2022/08/10 09:27:10;;;;;;;;;;;23.40;50.60;;;;;;5079016;28;19927;-64
2022/08/10 09:29:38;;;;;;;;;;;23.40;50.60;;;;;;5096962;28;20598;-64
2022/08/10 09:32:08;;;;;;;;;;;23.50;50.70;;;;;;5096308;28;19924;-62
2022/08/10 09:34:41;;;;;;;;;;;23.40;50.60;;;;;;5095727;28;20019;-63
2022/08/10 09:37:10;;;;;;;;;;;23.40;50.60;;;;;;5079862;28;19939;-62
2022/08/10 09:39:41;;;;;;;;;;;23.40;50.60;;;;;;5119131;27;19974;-63
2022/08/10 09:42:09;;;;;;;;;;;23.40;50.50;;;;;;5097666;28;20379;-65
2022/08/10 09:44:38;;;;;;;;;;;23.50;50.60;;;;;;5077054;28;19927;-63
2022/08/10 09:47:12;;;;;;;;;;;23.50;50.60;;;;;;5094571;28;20022;-62
2022/08/10 09:49:40;;;;;;;;;;;23.50;50.60;;;;;;5109919;27;20345;-64
2022/08/10 09:52:09;;;;;;;;;;;23.50;50.60;;;;;;5092498;28;20011;-63
2022/08/10 09:54:48;;;;;;;;;;;23.50;50.60;;;;;;5092367;28;19974;-64
2022/08/10 09:57:16;;;;;;;;;;;23.50;50.60;;;;;;5096920;28;19926;-63
2022/08/10 09:59:46;;;;;;;;;;;23.50;50.60;;;;;;5089414;28;19970;-63
2022/08/10 10:02:14;;;;;;;;;;;23.50;50.60;;;;;;5070937;28;19924;-64
2022/08/10 10:04:42;;;;;;;;;;;23.50;50.50;;;;;;5101061;28;20325;-64
2022/08/10 10:07:10;;;;;;;;;;;23.50;50.50;;;;;;5087819;28;20380;-64
2022/08/10 10:09:38;;;;;;;;;;;23.60;50.60;;;;;;5088115;28;19926;-64
2022/08/10 10:12:11;;;;;;;;;;;23.60;50.50;;;;;;5094056;28;19993;-65
2022/08/10 10:15:19;;;;;;;;;;;23.50;50.40;;;;;;5090207;28;20250;-63
2022/08/10 10:17:29;;;;;;;;;;;23.60;50.40;;;;;;5073085;28;20030;-64
2022/08/10 10:20:17;;;;;;;;;;;23.50;50.30;;;;;;5092137;28;22151;-64
2022/08/10 10:22:48;;;;;;;;;;;23.60;50.30;;;;;;5109999;27;19928;-63
2022/08/10 10:25:18;;;;;;;;;;;23.50;50.20;;;;;;5086837;28;19920;-64
2022/08/10 10:27:48;;;;;;;;;;;23.50;50.10;;;;;;5092705;28;20394;-64
2022/08/10 10:30:15;;;;;;;;;;;23.50;50.00;;;;;;5083775;28;19927;-63
2022/08/10 10:32:45;;;;;;;;;;;23.50;50.00;;;;;;5071884;28;20277;-63
2022/08/10 10:35:15;;;;;;;;;;;23.60;50.00;;;;;;5072274;28;19935;-64
2022/08/10 10:37:42;;;;;;;;;;;23.60;49.80;;;;;;5078730;28;19924;-64
2022/08/10 10:40:09;;;;;;;;;;;23.60;49.70;;;;;;5058408;28;20254;-63
2022/08/10 10:42:38;;;;;;;;;;;23.60;49.70;;;;;;5082033;28;19928;-63
2022/08/10 10:45:10;;;;;;;;;;;23.50;49.50;;;;;;5087389;28;19928;-66
2022/08/10 10:47:50;;;;;;;;;;;23.60;49.40;;;;;;5066405;28;20466;-64
2022/08/10 10:50:18;;;;;;;;;;;23.60;49.40;;;;;;5073997;28;20373;-64
2022/08/10 10:52:46;;;;;;;;;;;23.50;49.30;;;;;;5086716;28;20269;-63
2022/08/10 10:55:15;;;;;;;;;;;23.60;49.40;;;;;;5077125;28;19928;-63
2022/08/10 10:57:45;;;;;;;;;;;23.60;49.00;;;;;;5083907;28;19932;-64
2022/08/10 11:00:14;;;;;;;;;;;23.60;49.00;;;;;;5096281;28;19924;-63
2022/08/10 11:02:44;;;;;;;;;;;23.50;48.30;;;;;;5082226;28;19938;-64
2022/08/10 11:05:20;;;;;;;;;;;23.60;47.70;;;;;;5092026;28;19928;-63
2022/08/10 11:07:50;;;;;;;;;;;23.50;47.60;;;;;;5093691;28;19969;-64
2022/08/10 11:10:19;;;;;;;;;;;23.50;47.80;;;;;;5070278;28;19920;-63
2022/08/10 11:12:46;;;;;;;;;;;23.50;48.00;;;;;;5091417;28;19950;-63
2022/08/10 11:15:15;;;;;;;;;;;23.50;48.00;;;;;;5072260;28;19930;-64
2022/08/10 11:17:48;;;;;;;;;;;23.50;48.00;;;;;;5094272;28;20009;-63
2022/08/10 11:20:15;;;;;;;;;;;23.50;48.00;;;;;;5077286;28;20312;-63
2022/08/10 11:22:44;;;;;;;;;;;23.50;47.90;;;;;;5092000;28;20440;-64
2022/08/10 11:25:11;;;;;;;;;;;23.50;47.90;;;;;;5070526;28;19924;-64
2022/08/10 11:27:41;;;;;;;;;;;23.50;48.00;;;;;;5087444;28;20261;-64
2022/08/10 11:30:09;;;;;;;;;;;23.50;47.80;;;;;;5075953;28;19924;-64
2022/08/10 11:32:47;;;;;;;;;;;23.50;47.70;;;;;;5066997;28;19964;-63
2022/08/10 11:35:18;;;;;;;;;;;23.50;47.70;;;;;;5078777;28;20031;-65
2022/08/10 11:37:48;;;;;;;;;;;23.50;47.80;;;;;;5067927;28;20014;-64
2022/08/10 11:40:15;;;;;;;;;;;23.50;47.80;;;;;;5091613;28;19929;-64
2022/08/10 11:42:43;;;;;;;;;;;23.50;47.80;;;;;;5060825;28;19928;-64
2022/08/10 11:45:10;;;;;;;;;;;23.50;47.80;;;;;;5072108;28;19927;-65
2022/08/10 11:47:39;;;;;;;;;;;23.50;47.90;;;;;;5070769;28;19931;-64
2022/08/10 11:50:13;;;;;;;;;;;23.50;48.00;;;;;;5107932;28;20383;-62
2022/08/10 11:52:41;;;;;;;;;;;23.60;48.10;;;;;;5077595;28;20336;-64
2022/08/10 11:55:17;;;;;;;;;;;23.50;48.00;;;;;;5077732;28;19927;-64
2022/08/10 11:57:44;;;;;;;;;;;23.60;48.70;;;;;;5107512;28;19993;-63
2022/08/10 12:00:10;;;;;;;;;;;23.60;48.10;;;;;;5103613;28;19920;-63
2022/08/10 12:02:39;;;;;;;;;;;23.60;48.00;;;;;;5076795;28;19951;-63
2022/08/10 12:05:07;;;;;;;;;;;23.60;47.90;;;;;;5086755;28;19985;-64
2022/08/10 12:07:35;;;;;;;;;;;23.60;47.80;;;;;;5086212;28;19940;-63
2022/08/10 12:10:01;;;;;;;;;;;23.60;47.80;;;;;;5076959;28;19923;-63
2022/08/10 12:12:29;;;;;;;;;;;23.60;47.90;;;;;;5092954;28;19926;-64
2022/08/10 12:14:57;;;;;;;;;;;23.60;47.90;;;;;;5078110;28;19974;-63
2022/08/10 12:17:24;;;;;;;;;;;23.60;48.00;;;;;;5077073;28;20585;-64
2022/08/10 12:19:54;;;;;;;;;;;23.60;48.00;;;;;;5094878;28;19938;-64
2022/08/10 12:22:21;;;;;;;;;;;23.60;48.00;;;;;;5090281;28;20102;-64
2022/08/10 12:24:51;;;;;;;;;;;23.60;48.10;;;;;;5090968;28;19920;-64
2022/08/10 12:27:20;;;;;;;;;;;23.60;48.10;;;;;;5093331;28;19923;-63
2022/08/10 12:29:47;;;;;;;;;;;23.60;48.10;;;;;;5094109;28;19928;-63
2022/08/10 12:32:16;;;;;;;;;;;23.60;48.20;;;;;;5090957;28;20023;-64
2022/08/10 12:34:43;;;;;;;;;;;23.60;48.20;;;;;;5085600;28;20361;-64
2022/08/10 12:37:14;;;;;;;;;;;23.60;48.10;;;;;;5096151;28;19928;-64
2022/08/10 12:39:50;;;;;;;;;;;23.70;48.20;;;;;;5070088;28;19924;-64
2022/08/10 12:42:20;;;;;;;;;;;23.70;48.20;;;;;;5093151;28;19924;-63
2022/08/10 12:44:48;;;;;;;;;;;23.70;48.20;;;;;;5109083;27;19920;-63
2022/08/10 12:47:18;;;;;;;;;;;23.70;48.20;;;;;;5071345;28;20258;-63
2022/08/10 12:49:46;;;;;;;;;;;23.70;48.20;;;;;;5097898;28;19927;-63
2022/08/10 12:52:14;;;;;;;;;;;23.70;48.20;;;;;;5088604;28;19986;-64
2022/08/10 12:54:41;;;;;;;;;;;23.70;48.20;;;;;;5094319;28;19923;-64
2022/08/10 12:57:08;;;;;;;;;;;23.70;48.20;;;;;;5090712;28;19989;-64
2022/08/10 12:59:37;;;;;;;;;;;23.70;48.20;;;;;;5087024;28;20025;-63
2022/08/10 13:02:04;;;;;;;;;;;23.70;48.20;;;;;;5097186;28;20022;-64
2022/08/10 13:04:31;;;;;;;;;;;23.70;48.20;;;;;;5089273;28;19920;-65
2022/08/10 13:06:58;;;;;;;;;;;23.70;48.10;;;;;;5092711;28;20144;-64
2022/08/10 13:09:25;;;;;;;;;;;23.70;48.10;;;;;;5092042;28;19927;-64
2022/08/10 13:11:55;;;;;;;;;;;23.70;48.10;;;;;;5112062;27;19923;-65
2022/08/10 13:14:23;;;;;;;;;;;23.80;48.20;;;;;;5077654;28;20046;-70
2022/08/10 13:16:51;;;;;;;;;;;23.80;48.20;;;;;;5106604;27;19950;-64
2022/08/10 13:19:20;;;;;;;;;;;23.80;48.20;;;;;;5090018;28;19932;-64
2022/08/10 13:21:47;;;;;;;;;;;23.80;48.20;;;;;;5081220;28;20388;-64
2022/08/10 13:24:15;;;;;;;;;;;23.80;48.20;;;;;;5097503;28;19928;-64
2022/08/10 13:26:43;;;;;;;;;;;23.80;48.20;;;;;;5096128;28;20369;-64
2022/08/10 13:29:12;;;;;;;;;;;23.80;48.10;;;;;;5070924;28;20062;-64
2022/08/10 13:31:39;;;;;;;;;;;23.80;48.10;;;;;;5094925;28;19959;-64
2022/08/10 13:34:07;;;;;;;;;;;23.80;48.10;;;;;;5095994;28;19924;-63
2022/08/10 13:36:34;;;;;;;;;;;23.80;48.10;;;;;;5092704;28;19977;-64
2022/08/10 13:39:01;;;;;;;;;;;23.80;48.10;;;;;;5089079;28;20015;-63
2022/08/10 13:41:28;;;;;;;;;;;23.80;48.10;;;;;;5099361;27;19920;-64
2022/08/10 13:43:56;;;;;;;;;;;23.80;48.10;;;;;;5092469;28;19943;-64
2022/08/10 13:46:22;;;;;;;;;;;23.80;48.10;;;;;;5070909;28;20404;-66
2022/08/10 13:48:50;;;;;;;;;;;23.80;48.10;;;;;;5092266;28;19927;-63
2022/08/10 13:51:18;;;;;;;;;;;23.80;48.00;;;;;;5075896;28;19919;-64
2022/08/10 13:53:45;;;;;;;;;;;23.80;48.00;;;;;;5095834;28;20002;-64
2022/08/10 13:56:11;;;;;;;;;;;23.80;47.90;;;;;;5085252;28;19954;-65
2022/08/10 13:58:39;;;;;;;;;;;23.80;47.90;;;;;;5095402;28;19920;-64
2022/08/10 14:01:08;;;;;;;;;;;23.80;48.60;;;;;;5075148;28;19919;-65
2022/08/10 14:03:36;;;;;;;;;;;23.80;48.00;;;;;;5095575;28;19921;-65
2022/08/10 14:06:04;;;;;;;;;;;23.80;48.00;;;;;;5111383;27;19920;-64
2022/08/10 14:08:34;;;;;;;;;;;23.80;48.00;;;;;;5080060;28;20011;-65
2022/08/10 14:11:01;;;;;;;;;;;23.80;48.00;;;;;;5087277;28;19919;-64
2022/08/10 14:13:28;;;;;;;;;;;23.90;48.10;;;;;;5075179;28;19967;-64
2022/08/10 14:15:55;;;;;;;;;;;23.80;48.00;;;;;;5072105;28;19928;-67
2022/08/10 14:18:21;;;;;;;;;;;23.90;48.10;;;;;;5090403;28;20308;-65
2022/08/10 14:20:48;;;;;;;;;;;23.90;48.20;;;;;;5076114;28;19927;-65
2022/08/10 14:23:15;;;;;;;;;;;23.90;48.10;;;;;;5107667;27;19931;-65
2022/08/10 14:25:51;;;;;;;;;;;23.90;48.00;;;;;;5075090;28;19920;-66